sensor_id;sensor_type;location;lat;lon;timestamp;temperature;humidity
39519;DHT22;25200;53.394;10.414;2022-07-10T00:02:12;16.90;59.40
39519;DHT22;25200;53.394;10.414;2022-07-10T00:04:38;16.90;59.30
39519;DHT22;25200;53.394;10.414;2022-07-10T00:07:03;16.80;59.40
39519;DHT22;25200;53.394;10.414;2022-07-10T00:09:29;16.80;59.50
39519;DHT22;25200;53.394;10.414;2022-07-10T00:11:55;16.80;59.50
39519;DHT22;25200;53.394;10.414;2022-07-10T00:14:21;16.80;59.50
39519;DHT22;25200;53.394;10.414;2022-07-10T00:16:47;16.80;60.10
39519;DHT22;25200;53.394;10.414;2022-07-10T00:19:12;16.80;59.80
39519;DHT22;25200;53.394;10.414;2022-07-10T00:21:38;16.70;59.50
39519;DHT22;25200;53.394;10.414;2022-07-10T00:24:04;16.70;59.70
39519;DHT22;25200;53.394;10.414;2022-07-10T00:26:30;16.70;59.60
39519;DHT22;25200;53.394;10.414;2022-07-10T00:28:56;16.70;59.40
39519;DHT22;25200;53.394;10.414;2022-07-10T00:31:21;16.70;59.70
39519;DHT22;25200;53.394;10.414;2022-07-10T00:33:47;16.70;59.80
39519;DHT22;25200;53.394;10.414;2022-07-10T00:36:16;16.70;60.10
39519;DHT22;25200;53.394;10.414;2022-07-10T00:38:42;16.70;59.60
39519;DHT22;25200;53.394;10.414;2022-07-10T00:41:07;16.70;59.90
39519;DHT22;25200;53.394;10.414;2022-07-10T00:43:56;16.70;59.90
39519;DHT22;25200;53.394;10.414;2022-07-10T00:46:24;16.70;60.10
39519;DHT22;25200;53.394;10.414;2022-07-10T00:48:50;16.70;59.90
39519;DHT22;25200;53.394;10.414;2022-07-10T00:51:17;16.70;60.20
39519;DHT22;25200;53.394;10.414;2022-07-10T00:53:48;16.60;60.00
39519;DHT22;25200;53.394;10.414;2022-07-10T00:56:18;16.60;59.90
39519;DHT22;25200;53.394;10.414;2022-07-10T00:58:49;16.60;60.20
39519;DHT22;25200;53.394;10.414;2022-07-10T01:01:16;16.60;60.20
39519;DHT22;25200;53.394;10.414;2022-07-10T01:03:42;16.50;59.90
39519;DHT22;25200;53.394;10.414;2022-07-10T01:06:09;16.50;60.30
39519;DHT22;25200;53.394;10.414;2022-07-10T01:08:35;16.50;60.50
39519;DHT22;25200;53.394;10.414;2022-07-10T01:11:01;16.50;60.50
39519;DHT22;25200;53.394;10.414;2022-07-10T01:13:27;16.40;60.60
39519;DHT22;25200;53.394;10.414;2022-07-10T01:15:54;16.40;60.80
39519;DHT22;25200;53.394;10.414;2022-07-10T01:18:20;16.40;60.50
39519;DHT22;25200;53.394;10.414;2022-07-10T01:20:46;16.30;60.60
39519;DHT22;25200;53.394;10.414;2022-07-10T01:23:11;16.30;60.60
39519;DHT22;25200;53.394;10.414;2022-07-10T01:25:37;16.30;60.70
39519;DHT22;25200;53.394;10.414;2022-07-10T01:28:03;16.20;60.50
39519;DHT22;25200;53.394;10.414;2022-07-10T01:30:29;16.20;61.10
39519;DHT22;25200;53.394;10.414;2022-07-10T01:32:54;16.20;61.20
39519;DHT22;25200;53.394;10.414;2022-07-10T01:35:20;16.20;61.10
39519;DHT22;25200;53.394;10.414;2022-07-10T01:37:46;16.20;60.90
39519;DHT22;25200;53.394;10.414;2022-07-10T01:40:12;16.20;60.90
39519;DHT22;25200;53.394;10.414;2022-07-10T01:42:38;16.20;61.00
39519;DHT22;25200;53.394;10.414;2022-07-10T01:45:09;16.10;61.40
39519;DHT22;25200;53.394;10.414;2022-07-10T01:47:35;16.10;60.80
39519;DHT22;25200;53.394;10.414;2022-07-10T01:50:01;16.10;60.80
39519;DHT22;25200;53.394;10.414;2022-07-10T01:52:27;16.10;60.90
39519;DHT22;25200;53.394;10.414;2022-07-10T01:54:52;16.10;61.00
39519;DHT22;25200;53.394;10.414;2022-07-10T01:57:18;16.10;61.00
39519;DHT22;25200;53.394;10.414;2022-07-10T01:59:44;16.00;61.10
39519;DHT22;25200;53.394;10.414;2022-07-10T02:02:10;16.00;60.80
39519;DHT22;25200;53.394;10.414;2022-07-10T02:04:36;16.00;61.00
39519;DHT22;25200;53.394;10.414;2022-07-10T02:07:13;16.00;61.40
39519;DHT22;25200;53.394;10.414;2022-07-10T02:09:40;16.00;60.80
39519;DHT22;25200;53.394;10.414;2022-07-10T02:12:11;16.00;61.00
39519;DHT22;25200;53.394;10.414;2022-07-10T02:14:37;15.90;61.50
39519;DHT22;25200;53.394;10.414;2022-07-10T02:17:04;15.90;61.00
39519;DHT22;25200;53.394;10.414;2022-07-10T02:19:30;15.90;61.10
39519;DHT22;25200;53.394;10.414;2022-07-10T02:21:56;15.90;61.00
39519;DHT22;25200;53.394;10.414;2022-07-10T02:24:21;15.90;61.00
39519;DHT22;25200;53.394;10.414;2022-07-10T02:26:48;15.90;61.20
39519;DHT22;25200;53.394;10.414;2022-07-10T02:29:13;15.90;60.90
39519;DHT22;25200;53.394;10.414;2022-07-10T02:31:39;15.90;61.30
39519;DHT22;25200;53.394;10.414;2022-07-10T02:34:12;15.90;61.00
39519;DHT22;25200;53.394;10.414;2022-07-10T02:36:39;15.90;61.00
39519;DHT22;25200;53.394;10.414;2022-07-10T02:39:05;15.90;61.30
39519;DHT22;25200;53.394;10.414;2022-07-10T02:41:32;15.90;61.50
39519;DHT22;25200;53.394;10.414;2022-07-10T02:43:58;15.90;61.10
39519;DHT22;25200;53.394;10.414;2022-07-10T02:46:24;15.90;61.30
39519;DHT22;25200;53.394;10.414;2022-07-10T02:48:50;15.90;61.20
39519;DHT22;25200;53.394;10.414;2022-07-10T02:51:16;15.90;61.40
39519;DHT22;25200;53.394;10.414;2022-07-10T02:53:42;15.90;61.60
39519;DHT22;25200;53.394;10.414;2022-07-10T02:56:08;15.90;61.10
39519;DHT22;25200;53.394;10.414;2022-07-10T02:58:34;15.90;61.10
39519;DHT22;25200;53.394;10.414;2022-07-10T03:01:00;15.80;61.10
39519;DHT22;25200;53.394;10.414;2022-07-10T03:03:26;15.90;61.60
39519;DHT22;25200;53.394;10.414;2022-07-10T03:05:52;15.90;61.00
39519;DHT22;25200;53.394;10.414;2022-07-10T03:08:18;15.80;61.10
39519;DHT22;25200;53.394;10.414;2022-07-10T03:10:43;15.90;61.20
39519;DHT22;25200;53.394;10.414;2022-07-10T03:13:09;15.80;61.60
39519;DHT22;25200;53.394;10.414;2022-07-10T03:15:35;15.80;61.60
39519;DHT22;25200;53.394;10.414;2022-07-10T03:18:01;15.80;61.70
39519;DHT22;25200;53.394;10.414;2022-07-10T03:20:26;15.80;61.70
39519;DHT22;25200;53.394;10.414;2022-07-10T03:22:52;15.80;61.40
39519;DHT22;25200;53.394;10.414;2022-07-10T03:25:18;15.80;61.30
39519;DHT22;25200;53.394;10.414;2022-07-10T03:27:43;15.80;61.30
39519;DHT22;25200;53.394;10.414;2022-07-10T03:30:10;15.80;61.50
39519;DHT22;25200;53.394;10.414;2022-07-10T03:32:35;15.80;61.70
39519;DHT22;25200;53.394;10.414;2022-07-10T03:35:02;15.80;61.50
39519;DHT22;25200;53.394;10.414;2022-07-10T03:37:28;15.80;61.50
39519;DHT22;25200;53.394;10.414;2022-07-10T03:39:53;15.80;61.50
39519;DHT22;25200;53.394;10.414;2022-07-10T03:42:19;15.80;61.50
39519;DHT22;25200;53.394;10.414;2022-07-10T03:44:45;15.80;61.70
39519;DHT22;25200;53.394;10.414;2022-07-10T03:47:11;15.80;61.70
39519;DHT22;25200;53.394;10.414;2022-07-10T03:49:36;15.80;61.90
39519;DHT22;25200;53.394;10.414;2022-07-10T03:52:05;15.80;61.90
39519;DHT22;25200;53.394;10.414;2022-07-10T03:54:31;15.80;61.60
39519;DHT22;25200;53.394;10.414;2022-07-10T03:56:57;15.80;61.70
39519;DHT22;25200;53.394;10.414;2022-07-10T03:59:42;15.80;61.60
39519;DHT22;25200;53.394;10.414;2022-07-10T04:02:07;15.80;61.80
39519;DHT22;25200;53.394;10.414;2022-07-10T04:04:33;15.80;61.80
39519;DHT22;25200;53.394;10.414;2022-07-10T04:06:59;15.80;61.70
39519;DHT22;25200;53.394;10.414;2022-07-10T04:09:25;15.80;62.00
39519;DHT22;25200;53.394;10.414;2022-07-10T04:11:51;15.80;62.00
39519;DHT22;25200;53.394;10.414;2022-07-10T04:14:17;15.80;61.90
39519;DHT22;25200;53.394;10.414;2022-07-10T04:16:43;15.80;61.60
39519;DHT22;25200;53.394;10.414;2022-07-10T04:19:08;15.80;62.00
39519;DHT22;25200;53.394;10.414;2022-07-10T04:21:34;15.80;62.00
39519;DHT22;25200;53.394;10.414;2022-07-10T04:24:00;15.80;62.10
39519;DHT22;25200;53.394;10.414;2022-07-10T04:26:26;15.80;62.00
39519;DHT22;25200;53.394;10.414;2022-07-10T04:28:52;15.80;62.20
39519;DHT22;25200;53.394;10.414;2022-07-10T04:31:17;15.80;62.40
39519;DHT22;25200;53.394;10.414;2022-07-10T04:33:43;15.80;61.70
39519;DHT22;25200;53.394;10.414;2022-07-10T04:36:09;15.80;61.60
39519;DHT22;25200;53.394;10.414;2022-07-10T04:38:34;15.80;61.70
39519;DHT22;25200;53.394;10.414;2022-07-10T04:41:00;15.90;62.00
39519;DHT22;25200;53.394;10.414;2022-07-10T04:43:26;15.90;61.70
39519;DHT22;25200;53.394;10.414;2022-07-10T04:45:52;15.90;61.80
39519;DHT22;25200;53.394;10.414;2022-07-10T04:48:17;15.90;61.60
39519;DHT22;25200;53.394;10.414;2022-07-10T04:50:43;15.90;61.90
39519;DHT22;25200;53.394;10.414;2022-07-10T04:53:09;15.90;61.50
39519;DHT22;25200;53.394;10.414;2022-07-10T04:55:34;15.90;61.50
39519;DHT22;25200;53.394;10.414;2022-07-10T04:58:00;16.00;61.40
39519;DHT22;25200;53.394;10.414;2022-07-10T05:00:26;16.00;61.70
39519;DHT22;25200;53.394;10.414;2022-07-10T05:02:51;16.00;62.00
39519;DHT22;25200;53.394;10.414;2022-07-10T05:05:17;16.00;61.90
39519;DHT22;25200;53.394;10.414;2022-07-10T05:07:43;16.00;62.00
39519;DHT22;25200;53.394;10.414;2022-07-10T05:10:09;16.10;62.20
39519;DHT22;25200;53.394;10.414;2022-07-10T05:12:35;16.10;62.20
39519;DHT22;25200;53.394;10.414;2022-07-10T05:15:01;16.10;62.50
39519;DHT22;25200;53.394;10.414;2022-07-10T05:17:27;16.10;61.80
39519;DHT22;25200;53.394;10.414;2022-07-10T05:19:57;16.20;61.70
39519;DHT22;25200;53.394;10.414;2022-07-10T05:22:24;16.20;62.10
39519;DHT22;25200;53.394;10.414;2022-07-10T05:24:50;16.20;62.40
39519;DHT22;25200;53.394;10.414;2022-07-10T05:27:16;16.20;61.80
39519;DHT22;25200;53.394;10.414;2022-07-10T05:29:45;16.30;61.90
39519;DHT22;25200;53.394;10.414;2022-07-10T05:32:11;16.30;62.00
39519;DHT22;25200;53.394;10.414;2022-07-10T05:34:37;16.30;61.80
39519;DHT22;25200;53.394;10.414;2022-07-10T05:37:04;16.40;62.30
39519;DHT22;25200;53.394;10.414;2022-07-10T05:39:29;16.40;61.60
39519;DHT22;25200;53.394;10.414;2022-07-10T05:41:55;16.40;61.90
39519;DHT22;25200;53.394;10.414;2022-07-10T05:44:23;16.50;61.80
39519;DHT22;25200;53.394;10.414;2022-07-10T05:46:49;16.50;62.00
39519;DHT22;25200;53.394;10.414;2022-07-10T05:49:15;16.60;61.60
39519;DHT22;25200;53.394;10.414;2022-07-10T05:51:41;16.60;62.30
39519;DHT22;25200;53.394;10.414;2022-07-10T05:54:07;16.60;61.70
39519;DHT22;25200;53.394;10.414;2022-07-10T05:56:33;16.60;61.60
39519;DHT22;25200;53.394;10.414;2022-07-10T05:58:59;16.60;61.90
39519;DHT22;25200;53.394;10.414;2022-07-10T06:01:25;16.60;62.00
39519;DHT22;25200;53.394;10.414;2022-07-10T06:03:53;16.70;61.90
39519;DHT22;25200;53.394;10.414;2022-07-10T06:06:19;16.60;61.60
39519;DHT22;25200;53.394;10.414;2022-07-10T06:08:45;16.60;62.00
39519;DHT22;25200;53.394;10.414;2022-07-10T06:11:11;16.60;61.70
39519;DHT22;25200;53.394;10.414;2022-07-10T06:13:38;16.60;61.70
39519;DHT22;25200;53.394;10.414;2022-07-10T06:16:04;16.60;61.80
39519;DHT22;25200;53.394;10.414;2022-07-10T06:18:30;16.50;61.70
39519;DHT22;25200;53.394;10.414;2022-07-10T06:20:56;16.60;61.70
39519;DHT22;25200;53.394;10.414;2022-07-10T06:23:22;16.50;61.80
39519;DHT22;25200;53.394;10.414;2022-07-10T06:25:47;16.50;61.70
39519;DHT22;25200;53.394;10.414;2022-07-10T06:28:19;16.50;61.60
39519;DHT22;25200;53.394;10.414;2022-07-10T06:30:45;16.50;61.70
39519;DHT22;25200;53.394;10.414;2022-07-10T06:33:14;16.60;61.90
39519;DHT22;25200;53.394;10.414;2022-07-10T06:35:39;16.50;61.60
39519;DHT22;25200;53.394;10.414;2022-07-10T06:38:05;16.60;61.50
39519;DHT22;25200;53.394;10.414;2022-07-10T06:40:36;16.60;61.70
39519;DHT22;25200;53.394;10.414;2022-07-10T06:43:02;16.70;61.40
39519;DHT22;25200;53.394;10.414;2022-07-10T06:45:28;16.70;61.30
39519;DHT22;25200;53.394;10.414;2022-07-10T06:47:54;16.70;61.30
39519;DHT22;25200;53.394;10.414;2022-07-10T06:50:25;16.80;61.20
39519;DHT22;25200;53.394;10.414;2022-07-10T06:52:52;16.80;61.10
39519;DHT22;25200;53.394;10.414;2022-07-10T06:55:19;16.80;61.00
39519;DHT22;25200;53.394;10.414;2022-07-10T06:57:45;16.90;61.10
39519;DHT22;25200;53.394;10.414;2022-07-10T07:00:11;16.90;60.90
39519;DHT22;25200;53.394;10.414;2022-07-10T07:02:37;17.00;60.80
39519;DHT22;25200;53.394;10.414;2022-07-10T07:05:03;17.00;60.80
39519;DHT22;25200;53.394;10.414;2022-07-10T07:07:29;17.00;60.80
39519;DHT22;25200;53.394;10.414;2022-07-10T07:09:55;17.00;60.80
39519;DHT22;25200;53.394;10.414;2022-07-10T07:12:20;17.00;60.60
39519;DHT22;25200;53.394;10.414;2022-07-10T07:14:46;17.00;60.40
39519;DHT22;25200;53.394;10.414;2022-07-10T07:17:15;17.00;60.40
39519;DHT22;25200;53.394;10.414;2022-07-10T07:19:47;17.00;60.30
39519;DHT22;25200;53.394;10.414;2022-07-10T07:22:32;17.00;60.20
39519;DHT22;25200;53.394;10.414;2022-07-10T07:25:16;17.00;60.00
39519;DHT22;25200;53.394;10.414;2022-07-10T07:27:41;17.00;59.90
39519;DHT22;25200;53.394;10.414;2022-07-10T07:30:12;17.10;59.90
39519;DHT22;25200;53.394;10.414;2022-07-10T07:32:41;17.10;59.90
39519;DHT22;25200;53.394;10.414;2022-07-10T07:35:08;17.10;59.90
39519;DHT22;25200;53.394;10.414;2022-07-10T07:37:40;17.10;59.80
39519;DHT22;25200;53.394;10.414;2022-07-10T07:40:09;17.20;59.90
39519;DHT22;25200;53.394;10.414;2022-07-10T07:42:36;17.20;59.80
39519;DHT22;25200;53.394;10.414;2022-07-10T07:45:02;17.30;59.80
39519;DHT22;25200;53.394;10.414;2022-07-10T07:47:30;17.30;59.50
39519;DHT22;25200;53.394;10.414;2022-07-10T07:49:56;17.30;59.50
39519;DHT22;25200;53.394;10.414;2022-07-10T07:52:21;17.40;59.50
39519;DHT22;25200;53.394;10.414;2022-07-10T07:54:48;17.40;59.50
39519;DHT22;25200;53.394;10.414;2022-07-10T07:57:15;17.40;59.30
39519;DHT22;25200;53.394;10.414;2022-07-10T07:59:40;17.50;59.40
39519;DHT22;25200;53.394;10.414;2022-07-10T08:02:06;17.50;59.40
39519;DHT22;25200;53.394;10.414;2022-07-10T08:04:32;17.60;59.20
39519;DHT22;25200;53.394;10.414;2022-07-10T08:06:58;17.60;59.20
39519;DHT22;25200;53.394;10.414;2022-07-10T08:09:23;17.70;59.20
39519;DHT22;25200;53.394;10.414;2022-07-10T08:11:49;17.70;59.10
39519;DHT22;25200;53.394;10.414;2022-07-10T08:14:15;17.80;59.20
39519;DHT22;25200;53.394;10.414;2022-07-10T08:16:41;17.90;59.00
39519;DHT22;25200;53.394;10.414;2022-07-10T08:19:06;17.90;59.00
39519;DHT22;25200;53.394;10.414;2022-07-10T08:21:32;17.90;58.70
39519;DHT22;25200;53.394;10.414;2022-07-10T08:23:59;18.00;58.80
39519;DHT22;25200;53.394;10.414;2022-07-10T08:26:25;18.00;58.80
39519;DHT22;25200;53.394;10.414;2022-07-10T08:28:51;18.00;58.50
39519;DHT22;25200;53.394;10.414;2022-07-10T08:31:17;18.00;58.70
39519;DHT22;25200;53.394;10.414;2022-07-10T08:33:42;18.00;58.70
39519;DHT22;25200;53.394;10.414;2022-07-10T08:36:08;18.10;58.80
39519;DHT22;25200;53.394;10.414;2022-07-10T08:38:34;18.10;58.80
39519;DHT22;25200;53.394;10.414;2022-07-10T08:41:00;18.10;58.50
39519;DHT22;25200;53.394;10.414;2022-07-10T08:43:28;18.20;58.30
39519;DHT22;25200;53.394;10.414;2022-07-10T08:45:54;18.20;57.90
39519;DHT22;25200;53.394;10.414;2022-07-10T08:48:23;18.30;58.20
39519;DHT22;25200;53.394;10.414;2022-07-10T08:50:52;18.30;58.00
39519;DHT22;25200;53.394;10.414;2022-07-10T08:53:30;18.30;58.00
39519;DHT22;25200;53.394;10.414;2022-07-10T08:55:57;18.30;58.10
39519;DHT22;25200;53.394;10.414;2022-07-10T08:58:22;18.30;58.00
39519;DHT22;25200;53.394;10.414;2022-07-10T09:00:48;18.40;57.50
39519;DHT22;25200;53.394;10.414;2022-07-10T09:03:15;18.40;57.40
39519;DHT22;25200;53.394;10.414;2022-07-10T09:05:41;18.50;57.70
39519;DHT22;25200;53.394;10.414;2022-07-10T09:08:26;18.70;57.70
39519;DHT22;25200;53.394;10.414;2022-07-10T09:11:18;18.90;57.60
39519;DHT22;25200;53.394;10.414;2022-07-10T09:13:54;19.00;57.60
39519;DHT22;25200;53.394;10.414;2022-07-10T09:16:31;19.20;57.70
39519;DHT22;25200;53.394;10.414;2022-07-10T09:21:39;19.60;57.10
39519;DHT22;25200;53.394;10.414;2022-07-10T09:24:07;19.70;57.30
39519;DHT22;25200;53.394;10.414;2022-07-10T09:26:36;19.80;56.50
39519;DHT22;25200;53.394;10.414;2022-07-10T09:29:12;19.90;56.80
39519;DHT22;25200;53.394;10.414;2022-07-10T09:31:57;20.10;57.00
39519;DHT22;25200;53.394;10.414;2022-07-10T09:34:41;20.30;56.20
39519;DHT22;25200;53.394;10.414;2022-07-10T09:39:59;20.90;56.70
39519;DHT22;25200;53.394;10.414;2022-07-10T09:42:26;21.00;56.00
39519;DHT22;25200;53.394;10.414;2022-07-10T09:44:52;21.00;55.60
39519;DHT22;25200;53.394;10.414;2022-07-10T09:47:22;21.00;55.60
39519;DHT22;25200;53.394;10.414;2022-07-10T09:49:48;21.10;54.90
39519;DHT22;25200;53.394;10.414;2022-07-10T09:52:14;21.10;55.10
39519;DHT22;25200;53.394;10.414;2022-07-10T09:54:43;21.10;55.50
39519;DHT22;25200;53.394;10.414;2022-07-10T09:57:10;21.10;55.60
39519;DHT22;25200;53.394;10.414;2022-07-10T09:59:38;21.10;55.40
39519;DHT22;25200;53.394;10.414;2022-07-10T10:02:05;21.30;56.00
39519;DHT22;25200;53.394;10.414;2022-07-10T10:04:36;21.50;55.50
39519;DHT22;25200;53.394;10.414;2022-07-10T10:07:04;21.60;54.50
39519;DHT22;25200;53.394;10.414;2022-07-10T10:09:41;21.50;54.30
39519;DHT22;25200;53.394;10.414;2022-07-10T10:12:12;21.70;55.30
39519;DHT22;25200;53.394;10.414;2022-07-10T10:14:41;21.80;54.90
39519;DHT22;25200;53.394;10.414;2022-07-10T10:17:08;21.90;55.20
39519;DHT22;25200;53.394;10.414;2022-07-10T10:19:33;22.10;55.20
39519;DHT22;25200;53.394;10.414;2022-07-10T10:22:18;22.20;55.10
39519;DHT22;25200;53.394;10.414;2022-07-10T10:24:44;22.40;54.30
39519;DHT22;25200;53.394;10.414;2022-07-10T10:27:11;22.40;54.50
39519;DHT22;25200;53.394;10.414;2022-07-10T10:29:37;22.60;54.60
39519;DHT22;25200;53.394;10.414;2022-07-10T10:32:04;22.80;54.50
39519;DHT22;25200;53.394;10.414;2022-07-10T10:34:42;22.80;53.70
39519;DHT22;25200;53.394;10.414;2022-07-10T10:37:38;22.80;53.70
39519;DHT22;25200;53.394;10.414;2022-07-10T10:40:07;23.00;54.10
39519;DHT22;25200;53.394;10.414;2022-07-10T10:45:38;22.80;52.90
39519;DHT22;25200;53.394;10.414;2022-07-10T10:48:09;23.00;53.40
39519;DHT22;25200;53.394;10.414;2022-07-10T10:50:48;23.20;53.60
39519;DHT22;25200;53.394;10.414;2022-07-10T10:53:20;23.60;53.40
39519;DHT22;25200;53.394;10.414;2022-07-10T10:58:37;24.20;53.10
39519;DHT22;25200;53.394;10.414;2022-07-10T11:01:27;24.30;52.10
39519;DHT22;25200;53.394;10.414;2022-07-10T11:04:13;24.20;52.20
39519;DHT22;25200;53.394;10.414;2022-07-10T11:06:40;24.30;52.40
39519;DHT22;25200;53.394;10.414;2022-07-10T11:09:31;24.40;52.30
39519;DHT22;25200;53.394;10.414;2022-07-10T11:12:07;24.40;52.20
39519;DHT22;25200;53.394;10.414;2022-07-10T11:14:38;24.20;52.20
39519;DHT22;25200;53.394;10.414;2022-07-10T11:17:05;24.30;52.40
39519;DHT22;25200;53.394;10.414;2022-07-10T11:19:32;24.50;53.10
39519;DHT22;25200;53.394;10.414;2022-07-10T11:27:47;24.70;52.20
39519;DHT22;25200;53.394;10.414;2022-07-10T11:30:17;24.80;51.90
39519;DHT22;25200;53.394;10.414;2022-07-10T11:32:42;24.70;51.10
39519;DHT22;25200;53.394;10.414;2022-07-10T11:35:14;24.50;51.80
39519;DHT22;25200;53.394;10.414;2022-07-10T11:37:53;24.60;52.50
39519;DHT22;25200;53.394;10.414;2022-07-10T11:40:19;24.60;52.20
39519;DHT22;25200;53.394;10.414;2022-07-10T11:42:52;24.70;51.80
39519;DHT22;25200;53.394;10.414;2022-07-10T11:45:29;24.80;51.80
39519;DHT22;25200;53.394;10.414;2022-07-10T11:47:55;25.00;51.90
39519;DHT22;25200;53.394;10.414;2022-07-10T11:50:22;24.90;51.20
39519;DHT22;25200;53.394;10.414;2022-07-10T11:52:47;24.80;51.20
39519;DHT22;25200;53.394;10.414;2022-07-10T11:55:19;24.60;50.80
39519;DHT22;25200;53.394;10.414;2022-07-10T11:57:44;24.50;51.40
39519;DHT22;25200;53.394;10.414;2022-07-10T12:00:40;24.40;50.90
39519;DHT22;25200;53.394;10.414;2022-07-10T12:03:19;24.50;52.50
39519;DHT22;25200;53.394;10.414;2022-07-10T12:05:46;24.80;52.00
39519;DHT22;25200;53.394;10.414;2022-07-10T12:08:12;25.00;52.10
39519;DHT22;25200;53.394;10.414;2022-07-10T12:10:41;25.00;51.40
39519;DHT22;25200;53.394;10.414;2022-07-10T12:13:12;24.90;51.40
39519;DHT22;25200;53.394;10.414;2022-07-10T12:15:40;24.80;51.30
39519;DHT22;25200;53.394;10.414;2022-07-10T12:18:21;24.70;50.80
39519;DHT22;25200;53.394;10.414;2022-07-10T12:20:49;24.50;50.90
39519;DHT22;25200;53.394;10.414;2022-07-10T12:23:19;24.30;50.60
39519;DHT22;25200;53.394;10.414;2022-07-10T12:25:46;24.10;50.30
39519;DHT22;25200;53.394;10.414;2022-07-10T12:28:14;23.90;51.30
39519;DHT22;25200;53.394;10.414;2022-07-10T12:30:49;23.90;51.40
39519;DHT22;25200;53.394;10.414;2022-07-10T12:33:18;23.90;51.40
39519;DHT22;25200;53.394;10.414;2022-07-10T12:38:18;23.80;51.70
39519;DHT22;25200;53.394;10.414;2022-07-10T12:40:43;23.80;51.40
39519;DHT22;25200;53.394;10.414;2022-07-10T12:43:09;23.90;51.40
39519;DHT22;25200;53.394;10.414;2022-07-10T12:45:37;24.00;51.70
39519;DHT22;25200;53.394;10.414;2022-07-10T12:48:04;24.10;52.10
39519;DHT22;25200;53.394;10.414;2022-07-10T12:50:31;24.30;52.30
39519;DHT22;25200;53.394;10.414;2022-07-10T12:53:08;24.30;51.00
39519;DHT22;25200;53.394;10.414;2022-07-10T12:55:35;24.50;51.80
39519;DHT22;25200;53.394;10.414;2022-07-10T12:58:07;24.50;51.00
39519;DHT22;25200;53.394;10.414;2022-07-10T13:00:35;24.70;51.30
39519;DHT22;25200;53.394;10.414;2022-07-10T13:03:07;24.70;50.70
39519;DHT22;25200;53.394;10.414;2022-07-10T13:05:37;24.60;50.80
39519;DHT22;25200;53.394;10.414;2022-07-10T13:08:22;24.50;50.70
39519;DHT22;25200;53.394;10.414;2022-07-10T13:10:58;24.50;51.00
39519;DHT22;25200;53.394;10.414;2022-07-10T13:13:24;24.30;50.60
39519;DHT22;25200;53.394;10.414;2022-07-10T13:15:50;24.30;50.80
39519;DHT22;25200;53.394;10.414;2022-07-10T13:18:20;24.20;50.70
39519;DHT22;25200;53.394;10.414;2022-07-10T13:20:48;24.00;50.40
39519;DHT22;25200;53.394;10.414;2022-07-10T13:23:14;24.00;50.90
39519;DHT22;25200;53.394;10.414;2022-07-10T13:25:40;23.90;50.80
39519;DHT22;25200;53.394;10.414;2022-07-10T13:28:07;23.80;51.20
39519;DHT22;25200;53.394;10.414;2022-07-10T13:30:33;23.80;51.10
39519;DHT22;25200;53.394;10.414;2022-07-10T13:32:59;23.70;51.00
39519;DHT22;25200;53.394;10.414;2022-07-10T13:35:28;23.50;50.50
39519;DHT22;25200;53.394;10.414;2022-07-10T13:37:54;23.40;51.00
39519;DHT22;25200;53.394;10.414;2022-07-10T13:40:19;23.30;51.10
39519;DHT22;25200;53.394;10.414;2022-07-10T13:42:45;23.30;51.70
39519;DHT22;25200;53.394;10.414;2022-07-10T13:45:11;23.30;51.90
39519;DHT22;25200;53.394;10.414;2022-07-10T13:47:37;23.30;51.50
39519;DHT22;25200;53.394;10.414;2022-07-10T13:50:03;23.30;51.50
39519;DHT22;25200;53.394;10.414;2022-07-10T13:52:28;23.20;51.00
39519;DHT22;25200;53.394;10.414;2022-07-10T13:54:54;23.20;51.80
39519;DHT22;25200;53.394;10.414;2022-07-10T13:57:20;23.20;51.90
39519;DHT22;25200;53.394;10.414;2022-07-10T13:59:45;23.20;51.60
39519;DHT22;25200;53.394;10.414;2022-07-10T14:02:11;23.20;51.80
39519;DHT22;25200;53.394;10.414;2022-07-10T14:04:37;23.30;52.10
39519;DHT22;25200;53.394;10.414;2022-07-10T14:07:03;23.30;51.90
39519;DHT22;25200;53.394;10.414;2022-07-10T14:09:29;23.50;51.90
39519;DHT22;25200;53.394;10.414;2022-07-10T14:11:55;23.50;51.90
39519;DHT22;25200;53.394;10.414;2022-07-10T14:14:20;23.50;51.50
39519;DHT22;25200;53.394;10.414;2022-07-10T14:16:47;23.60;51.90
39519;DHT22;25200;53.394;10.414;2022-07-10T14:19:15;23.80;51.90
39519;DHT22;25200;53.394;10.414;2022-07-10T14:21:41;23.90;51.70
39519;DHT22;25200;53.394;10.414;2022-07-10T14:24:06;24.20;52.30
39519;DHT22;25200;53.394;10.414;2022-07-10T14:26:32;24.40;51.90
39519;DHT22;25200;53.394;10.414;2022-07-10T14:29:01;24.50;51.70
39519;DHT22;25200;53.394;10.414;2022-07-10T14:31:27;24.50;51.60
39519;DHT22;25200;53.394;10.414;2022-07-10T14:33:53;24.50;51.50
39519;DHT22;25200;53.394;10.414;2022-07-10T14:36:19;24.50;51.30
39519;DHT22;25200;53.394;10.414;2022-07-10T14:38:45;24.30;50.80
39519;DHT22;25200;53.394;10.414;2022-07-10T14:41:10;24.20;50.90
39519;DHT22;25200;53.394;10.414;2022-07-10T14:43:36;24.00;50.60
39519;DHT22;25200;53.394;10.414;2022-07-10T14:46:02;23.90;51.00
39519;DHT22;25200;53.394;10.414;2022-07-10T14:48:30;23.90;51.20
39519;DHT22;25200;53.394;10.414;2022-07-10T14:50:56;23.90;51.00
39519;DHT22;25200;53.394;10.414;2022-07-10T14:53:25;23.80;50.20
39519;DHT22;25200;53.394;10.414;2022-07-10T14:55:51;23.70;50.90
39519;DHT22;25200;53.394;10.414;2022-07-10T14:58:17;23.60;50.70
39519;DHT22;25200;53.394;10.414;2022-07-10T15:00:42;23.50;50.70
39519;DHT22;25200;53.394;10.414;2022-07-10T15:03:08;23.40;51.10
39519;DHT22;25200;53.394;10.414;2022-07-10T15:05:34;23.50;51.20
39519;DHT22;25200;53.394;10.414;2022-07-10T15:08:00;23.60;51.10
39519;DHT22;25200;53.394;10.414;2022-07-10T15:10:27;23.70;51.10
39519;DHT22;25200;53.394;10.414;2022-07-10T15:12:53;23.60;51.00
39519;DHT22;25200;53.394;10.414;2022-07-10T15:15:19;23.50;50.80
39519;DHT22;25200;53.394;10.414;2022-07-10T15:17:45;23.50;51.30
39519;DHT22;25200;53.394;10.414;2022-07-10T15:20:11;23.50;50.40
39519;DHT22;25200;53.394;10.414;2022-07-10T15:22:38;23.40;50.90
39519;DHT22;25200;53.394;10.414;2022-07-10T15:25:04;23.30;50.40
39519;DHT22;25200;53.394;10.414;2022-07-10T15:27:31;23.10;50.40
39519;DHT22;25200;53.394;10.414;2022-07-10T15:29:56;23.00;50.90
39519;DHT22;25200;53.394;10.414;2022-07-10T15:32:22;22.90;50.80
39519;DHT22;25200;53.394;10.414;2022-07-10T15:34:48;22.80;51.30
39519;DHT22;25200;53.394;10.414;2022-07-10T15:37:15;22.80;51.10
39519;DHT22;25200;53.394;10.414;2022-07-10T15:39:41;22.70;50.80